sensor_id;sensor_type;location;lat;lon;timestamp;pressure;altitude;pressure_sealevel;temperature;humidity
60099;BME280;62818;49.394;8.686;2022-09-21T00:00:27;101222.53;;;9.72;100.00
60099;BME280;62818;49.394;8.686;2022-09-21T00:01:30;101221.75;;;9.35;100.00
60099;BME280;62818;49.394;8.686;2022-09-21T00:02:31;101219.88;;;9.27;100.00
60099;BME280;62818;49.394;8.686;2022-09-21T00:03:32;101219.63;;;9.21;100.00
60099;BME280;62818;49.394;8.686;2022-09-21T00:04:32;101212.81;;;9.18;100.00
60099;BME280;62818;49.394;8.686;2022-09-21T00:05:34;101216.47;;;9.35;100.00
60099;BME280;62818;49.394;8.686;2022-09-21T00:06:36;101219.13;;;9.35;100.00
60099;BME280;62818;49.394;8.686;2022-09-21T00:07:39;101219.31;;;9.24;100.00
60099;BME280;62818;49.394;8.686;2022-09-21T00:08:40;101225.47;;;9.15;100.00
60099;BME280;62818;49.394;8.686;2022-09-21T00:09:41;101216.72;;;9.14;100.00
60099;BME280;62818;49.394;8.686;2022-09-21T00:10:48;101220.41;;;9.31;100.00
60099;BME280;62818;49.394;8.686;2022-09-21T00:11:49;101221.13;;;9.50;100.00
60099;BME280;62818;49.394;8.686;2022-09-21T00:12:50;101219.88;;;9.72;100.00
60099;BME280;62818;49.394;8.686;2022-09-21T00:13:55;101224.44;;;9.80;100.00
60099;BME280;62818;49.394;8.686;2022-09-21T00:15:02;101226.63;;;9.84;98.93
60099;BME280;62818;49.394;8.686;2022-09-21T00:16:06;101223.72;;;9.33;100.00
60099;BME280;62818;49.394;8.686;2022-09-21T00:17:08;101219.22;;;9.16;100.00
60099;BME280;62818;49.394;8.686;2022-09-21T00:18:11;101225.84;;;8.92;100.00
60099;BME280;62818;49.394;8.686;2022-09-21T00:19:13;101230.06;;;8.76;100.00
60099;BME280;62818;49.394;8.686;2022-09-21T00:20:15;101223.00;;;9.04;100.00
60099;BME280;62818;49.394;8.686;2022-09-21T00:21:19;101223.19;;;8.92;100.00
60099;BME280;62818;49.394;8.686;2022-09-21T00:22:20;101223.69;;;8.69;100.00
60099;BME280;62818;49.394;8.686;2022-09-21T00:23:21;101222.56;;;8.71;100.00
60099;BME280;62818;49.394;8.686;2022-09-21T00:24:22;101227.44;;;9.13;100.00
60099;BME280;62818;49.394;8.686;2022-09-21T00:25:23;101222.59;;;9.35;100.00
60099;BME280;62818;49.394;8.686;2022-09-21T00:26:25;101229.22;;;9.49;100.00
60099;BME280;62818;49.394;8.686;2022-09-21T00:27:26;101231.06;;;9.39;100.00
60099;BME280;62818;49.394;8.686;2022-09-21T00:28:29;101229.94;;;9.41;100.00
60099;BME280;62818;49.394;8.686;2022-09-21T00:29:29;101229.59;;;9.54;100.00
60099;BME280;62818;49.394;8.686;2022-09-21T00:30:30;101226.44;;;9.68;100.00
60099;BME280;62818;49.394;8.686;2022-09-21T00:31:33;101228.94;;;9.69;99.99
60099;BME280;62818;49.394;8.686;2022-09-21T00:32:37;101231.97;;;9.75;99.61
60099;BME280;62818;49.394;8.686;2022-09-21T00:33:41;101226.66;;;9.57;99.44
60099;BME280;62818;49.394;8.686;2022-09-21T00:34:43;101230.09;;;9.40;100.00
60099;BME280;62818;49.394;8.686;2022-09-21T00:35:43;101227.59;;;9.11;100.00
60099;BME280;62818;49.394;8.686;2022-09-21T00:36:44;101222.28;;;9.21;100.00
60099;BME280;62818;49.394;8.686;2022-09-21T00:37:44;101221.47;;;9.38;100.00
60099;BME280;62818;49.394;8.686;2022-09-21T00:38:52;101228.81;;;9.44;100.00
60099;BME280;62818;49.394;8.686;2022-09-21T00:39:55;101231.06;;;9.39;100.00
60099;BME280;62818;49.394;8.686;2022-09-21T00:40:56;101217.84;;;9.12;100.00
60099;BME280;62818;49.394;8.686;2022-09-21T00:41:57;101229.47;;;8.91;100.00
60099;BME280;62818;49.394;8.686;2022-09-21T00:43:13;101227.28;;;8.77;100.00
60099;BME280;62818;49.394;8.686;2022-09-21T00:44:22;101225.38;;;9.07;100.00
60099;BME280;62818;49.394;8.686;2022-09-21T00:45:26;101228.03;;;8.97;100.00
60099;BME280;62818;49.394;8.686;2022-09-21T00:46:28;101231.78;;;9.04;100.00
60099;BME280;62818;49.394;8.686;2022-09-21T00:47:34;101230.56;;;9.26;100.00
60099;BME280;62818;49.394;8.686;2022-09-21T00:48:39;101226.31;;;9.15;100.00
60099;BME280;62818;49.394;8.686;2022-09-21T00:49:47;101228.97;;;9.06;100.00
60099;BME280;62818;49.394;8.686;2022-09-21T00:50:56;101224.66;;;9.14;100.00
60099;BME280;62818;49.394;8.686;2022-09-21T00:52:02;101230.25;;;9.38;100.00
60099;BME280;62818;49.394;8.686;2022-09-21T00:53:08;101229.28;;;9.30;100.00
60099;BME280;62818;49.394;8.686;2022-09-21T00:54:17;101226.34;;;9.42;100.00
60099;BME280;62818;49.394;8.686;2022-09-21T00:55:36;101228.03;;;8.97;100.00
60099;BME280;62818;49.394;8.686;2022-09-21T00:56:43;101224.69;;;9.05;100.00
60099;BME280;62818;49.394;8.686;2022-09-21T00:57:46;101228.50;;;9.29;100.00
60099;BME280;62818;49.394;8.686;2022-09-21T00:58:54;101231.81;;;9.31;100.00
60099;BME280;62818;49.394;8.686;2022-09-21T01:00:03;101234.84;;;9.36;100.00
60099;BME280;62818;49.394;8.686;2022-09-21T01:01:09;101232.59;;;9.41;100.00
60099;BME280;62818;49.394;8.686;2022-09-21T01:02:17;101236.16;;;9.50;100.00
60099;BME280;62818;49.394;8.686;2022-09-21T01:03:17;101237.06;;;9.04;100.00
60099;BME280;62818;49.394;8.686;2022-09-21T01:04:18;101232.03;;;8.74;100.00
60099;BME280;62818;49.394;8.686;2022-09-21T01:05:20;101239.38;;;8.70;100.00
60099;BME280;62818;49.394;8.686;2022-09-21T01:06:26;101236.81;;;8.98;100.00
60099;BME280;62818;49.394;8.686;2022-09-21T01:07:32;101250.38;;;9.22;100.00
60099;BME280;62818;49.394;8.686;2022-09-21T01:08:37;101234.22;;;9.25;100.00
60099;BME280;62818;49.394;8.686;2022-09-21T01:09:41;101238.88;;;9.04;100.00
60099;BME280;62818;49.394;8.686;2022-09-21T01:14:09;101245.88;;;8.95;100.00
60099;BME280;62818;49.394;8.686;2022-09-21T01:17:27;101242.22;;;9.06;100.00
60099;BME280;62818;49.394;8.686;2022-09-21T01:18:34;101240.03;;;9.28;100.00
60099;BME280;62818;49.394;8.686;2022-09-21T01:21:33;101241.69;;;8.92;100.00
60099;BME280;62818;49.394;8.686;2022-09-21T01:30:21;101241.31;;;8.78;100.00
60099;BME280;62818;49.394;8.686;2022-09-21T01:31:27;101247.66;;;8.94;100.00
60099;BME280;62818;49.394;8.686;2022-09-21T01:32:35;101243.88;;;9.07;100.00
60099;BME280;62818;49.394;8.686;2022-09-21T01:33:49;101239.00;;;8.65;100.00
60099;BME280;62818;49.394;8.686;2022-09-21T01:35:08;101240.38;;;8.69;100.00
60099;BME280;62818;49.394;8.686;2022-09-21T01:36:18;101245.97;;;8.57;100.00
60099;BME280;62818;49.394;8.686;2022-09-21T01:37:37;101247.94;;;8.26;100.00
60099;BME280;62818;49.394;8.686;2022-09-21T01:38:48;101255.31;;;8.32;100.00
60099;BME280;62818;49.394;8.686;2022-09-21T01:39:59;101255.38;;;8.78;100.00
60099;BME280;62818;49.394;8.686;2022-09-21T01:41:06;101248.06;;;9.09;100.00
60099;BME280;62818;49.394;8.686;2022-09-21T01:42:16;101249.78;;;8.81;100.00
60099;BME280;62818;49.394;8.686;2022-09-21T01:43:37;101258.56;;;8.72;100.00
60099;BME280;62818;49.394;8.686;2022-09-21T01:44:44;101251.59;;;8.90;100.00
60099;BME280;62818;49.394;8.686;2022-09-21T01:45:53;101252.50;;;9.09;100.00
60099;BME280;62818;49.394;8.686;2022-09-21T01:47:05;101254.75;;;9.04;100.00
60099;BME280;62818;49.394;8.686;2022-09-21T01:48:12;101256.09;;;8.71;100.00
60099;BME280;62818;49.394;8.686;2022-09-21T01:49:18;101253.47;;;8.42;100.00
60099;BME280;62818;49.394;8.686;2022-09-21T01:50:27;101251.28;;;8.28;100.00
60099;BME280;62818;49.394;8.686;2022-09-21T01:51:34;101253.59;;;8.69;100.00
60099;BME280;62818;49.394;8.686;2022-09-21T01:53:14;101250.19;;;8.96;100.00
60099;BME280;62818;49.394;8.686;2022-09-21T01:54:21;101255.22;;;8.89;100.00
60099;BME280;62818;49.394;8.686;2022-09-21T01:55:55;101254.81;;;8.84;100.00
60099;BME280;62818;49.394;8.686;2022-09-21T01:57:32;101250.03;;;8.98;100.00
60099;BME280;62818;49.394;8.686;2022-09-21T01:59:09;101252.44;;;8.81;100.00
60099;BME280;62818;49.394;8.686;2022-09-21T02:00:29;101258.03;;;8.59;100.00
60099;BME280;62818;49.394;8.686;2022-09-21T02:01:40;101259.44;;;8.63;100.00
60099;BME280;62818;49.394;8.686;2022-09-21T02:02:59;101252.31;;;8.73;100.00
60099;BME280;62818;49.394;8.686;2022-09-21T02:04:10;101253.53;;;8.88;100.00
60099;BME280;62818;49.394;8.686;2022-09-21T02:05:14;101247.84;;;8.83;100.00
60099;BME280;62818;49.394;8.686;2022-09-21T02:06:19;101252.59;;;8.70;100.00
60099;BME280;62818;49.394;8.686;2022-09-21T02:07:20;101242.28;;;8.77;100.00
60099;BME280;62818;49.394;8.686;2022-09-21T02:08:22;101250.13;;;8.59;100.00
60099;BME280;62818;49.394;8.686;2022-09-21T02:09:26;101246.34;;;8.71;100.00
60099;BME280;62818;49.394;8.686;2022-09-21T02:10:44;101248.19;;;8.42;100.00
60099;BME280;62818;49.394;8.686;2022-09-21T02:11:51;101250.88;;;8.33;100.00
60099;BME280;62818;49.394;8.686;2022-09-21T02:12:54;101251.81;;;8.41;100.00
60099;BME280;62818;49.394;8.686;2022-09-21T02:14:00;101252.94;;;8.29;100.00
60099;BME280;62818;49.394;8.686;2022-09-21T02:15:05;101244.56;;;8.62;100.00
60099;BME280;62818;49.394;8.686;2022-09-21T02:19:16;101246.81;;;8.29;100.00
60099;BME280;62818;49.394;8.686;2022-09-21T02:20:35;101243.72;;;8.71;100.00
60099;BME280;62818;49.394;8.686;2022-09-21T02:23:16;101244.59;;;8.43;100.00
60099;BME280;62818;49.394;8.686;2022-09-21T02:24:46;101237.34;;;8.45;100.00
60099;BME280;62818;49.394;8.686;2022-09-21T02:27:44;101231.53;;;8.32;100.00
60099;BME280;62818;49.394;8.686;2022-09-21T02:30:13;101242.03;;;8.13;100.00
60099;BME280;62818;49.394;8.686;2022-09-21T02:33:21;101245.94;;;8.18;100.00
60099;BME280;62818;49.394;8.686;2022-09-21T02:37:21;101235.66;;;7.96;100.00
60099;BME280;62818;49.394;8.686;2022-09-21T02:38:50;101240.78;;;7.79;100.00
60099;BME280;62818;49.394;8.686;2022-09-21T02:42:30;101238.63;;;8.41;100.00
60099;BME280;62818;49.394;8.686;2022-09-21T02:45:14;101237.19;;;8.18;100.00
60099;BME280;62818;49.394;8.686;2022-09-21T02:46:26;101241.50;;;8.19;100.00
60099;BME280;62818;49.394;8.686;2022-09-21T02:48:07;101238.28;;;8.15;100.00
60099;BME280;62818;49.394;8.686;2022-09-21T02:49:18;101238.19;;;8.17;100.00
60099;BME280;62818;49.394;8.686;2022-09-21T02:50:52;101233.44;;;8.11;100.00
60099;BME280;62818;49.394;8.686;2022-09-21T02:51:58;101230.09;;;8.09;100.00
60099;BME280;62818;49.394;8.686;2022-09-21T02:53:04;101234.03;;;8.34;100.00
60099;BME280;62818;49.394;8.686;2022-09-21T02:54:12;101231.81;;;8.29;100.00
60099;BME280;62818;49.394;8.686;2022-09-21T02:55:17;101238.19;;;8.36;100.00
60099;BME280;62818;49.394;8.686;2022-09-21T02:56:18;101239.84;;;8.56;100.00
60099;BME280;62818;49.394;8.686;2022-09-21T02:57:21;101230.53;;;8.33;100.00
60099;BME280;62818;49.394;8.686;2022-09-21T02:58:24;101234.69;;;7.97;100.00
60099;BME280;62818;49.394;8.686;2022-09-21T02:59:29;101231.22;;;7.97;100.00
60099;BME280;62818;49.394;8.686;2022-09-21T03:00:30;101233.72;;;8.08;100.00
60099;BME280;62818;49.394;8.686;2022-09-21T03:01:33;101227.88;;;8.14;100.00
60099;BME280;62818;49.394;8.686;2022-09-21T03:02:38;101232.63;;;8.10;100.00
60099;BME280;62818;49.394;8.686;2022-09-21T03:03:40;101231.34;;;7.86;100.00
60099;BME280;62818;49.394;8.686;2022-09-21T03:04:45;101231.22;;;7.97;100.00
60099;BME280;62818;49.394;8.686;2022-09-21T03:05:54;101232.34;;;8.04;100.00
60099;BME280;62818;49.394;8.686;2022-09-21T03:06:55;101233.97;;;8.24;100.00
60099;BME280;62818;49.394;8.686;2022-09-21T03:07:58;101224.00;;;8.18;100.00
60099;BME280;62818;49.394;8.686;2022-09-21T03:08:59;101230.22;;;7.98;100.00
60099;BME280;62818;49.394;8.686;2022-09-21T03:10:00;101233.81;;;7.78;100.00
60099;BME280;62818;49.394;8.686;2022-09-21T03:11:01;101230.91;;;7.81;100.00
60099;BME280;62818;49.394;8.686;2022-09-21T03:12:05;101238.19;;;8.17;100.00
60099;BME280;62818;49.394;8.686;2022-09-21T03:13:09;101229.44;;;8.45;100.00
60099;BME280;62818;49.394;8.686;2022-09-21T03:14:12;101231.38;;;8.43;100.00
60099;BME280;62818;49.394;8.686;2022-09-21T03:15:17;101232.31;;;8.13;100.00
60099;BME280;62818;49.394;8.686;2022-09-21T03:16:18;101236.38;;;8.08;100.00
60099;BME280;62818;49.394;8.686;2022-09-21T03:17:18;101239.56;;;8.21;100.00
60099;BME280;62818;49.394;8.686;2022-09-21T03:18:19;101236.50;;;8.35;100.00
60099;BME280;62818;49.394;8.686;2022-09-21T03:19:19;101234.69;;;7.88;100.00
60099;BME280;62818;49.394;8.686;2022-09-21T03:20:20;101229.50;;;7.67;100.00
60099;BME280;62818;49.394;8.686;2022-09-21T03:21:22;101229.53;;;7.77;100.00
60099;BME280;62818;49.394;8.686;2022-09-21T03:22:23;101236.50;;;8.06;100.00
60099;BME280;62818;49.394;8.686;2022-09-21T03:23:29;101242.84;;;7.66;100.00
60099;BME280;62818;49.394;8.686;2022-09-21T03:24:30;101236.81;;;7.54;100.00
60099;BME280;62818;49.394;8.686;2022-09-21T03:25:46;101238.44;;;7.85;100.00
60099;BME280;62818;49.394;8.686;2022-09-21T03:26:46;101232.19;;;8.24;100.00
60099;BME280;62818;49.394;8.686;2022-09-21T03:27:49;101243.69;;;7.85;100.00
60099;BME280;62818;49.394;8.686;2022-09-21T03:28:53;101242.75;;;7.86;100.00
60099;BME280;62818;49.394;8.686;2022-09-21T03:29:56;101243.97;;;7.73;100.00
60099;BME280;62818;49.394;8.686;2022-09-21T03:30:57;101243.16;;;8.01;100.00
60099;BME280;62818;49.394;8.686;2022-09-21T03:31:57;101246.50;;;8.03;100.00
60099;BME280;62818;49.394;8.686;2022-09-21T03:33:00;101245.13;;;8.18;100.00
60099;BME280;62818;49.394;8.686;2022-09-21T03:34:00;101244.97;;;8.19;100.00
60099;BME280;62818;49.394;8.686;2022-09-21T03:35:01;101251.41;;;8.36;100.00
60099;BME280;62818;49.394;8.686;2022-09-21T03:36:02;101256.94;;;8.33;100.00
60099;BME280;62818;49.394;8.686;2022-09-21T03:37:04;101245.38;;;7.96;100.00
60099;BME280;62818;49.394;8.686;2022-09-21T03:38:08;101247.03;;;7.87;100.00
60099;BME280;62818;49.394;8.686;2022-09-21T03:39:11;101249.00;;;8.04;100.00
60099;BME280;62818;49.394;8.686;2022-09-21T03:40:12;101251.91;;;7.92;100.00
60099;BME280;62818;49.394;8.686;2022-09-21T03:41:13;101252.59;;;7.94;100.00
60099;BME280;62818;49.394;8.686;2022-09-21T03:42:16;101260.00;;;8.19;100.00
60099;BME280;62818;49.394;8.686;2022-09-21T03:43:17;101253.44;;;8.13;100.00
60099;BME280;62818;49.394;8.686;2022-09-21T03:44:18;101255.66;;;7.80;100.00
60099;BME280;62818;49.394;8.686;2022-09-21T03:45:22;101264.97;;;7.84;100.00
60099;BME280;62818;49.394;8.686;2022-09-21T03:46:26;101260.56;;;7.44;100.00
60099;BME280;62818;49.394;8.686;2022-09-21T03:47:37;101258.94;;;7.63;100.00
60099;BME280;62818;49.394;8.686;2022-09-21T03:48:38;101252.75;;;8.02;100.00
60099;BME280;62818;49.394;8.686;2022-09-21T03:49:41;101258.72;;;8.13;100.00
60099;BME280;62818;49.394;8.686;2022-09-21T03:50:42;101259.97;;;8.09;100.00
60099;BME280;62818;49.394;8.686;2022-09-21T03:51:42;101260.38;;;7.86;100.00
60099;BME280;62818;49.394;8.686;2022-09-21T03:52:48;101262.88;;;7.87;100.00
60099;BME280;62818;49.394;8.686;2022-09-21T03:53:49;101260.25;;;8.06;100.00
60099;BME280;62818;49.394;8.686;2022-09-21T03:54:50;101259.50;;;7.76;100.00
60099;BME280;62818;49.394;8.686;2022-09-21T03:55:50;101257.19;;;8.11;100.00
60099;BME280;62818;49.394;8.686;2022-09-21T03:56:53;101259.41;;;7.96;100.00
60099;BME280;62818;49.394;8.686;2022-09-21T03:57:56;101254.03;;;8.17;100.00
60099;BME280;62818;49.394;8.686;2022-09-21T03:58:59;101261.75;;;7.71;100.00
60099;BME280;62818;49.394;8.686;2022-09-21T04:00:05;101250.63;;;7.77;100.00
60099;BME280;62818;49.394;8.686;2022-09-21T04:01:08;101263.97;;;7.85;100.00
60099;BME280;62818;49.394;8.686;2022-09-21T04:02:13;101255.97;;;8.15;100.00
60099;BME280;62818;49.394;8.686;2022-09-21T04:03:16;101257.50;;;8.08;100.00
60099;BME280;62818;49.394;8.686;2022-09-21T04:04:16;101256.56;;;8.28;100.00
60099;BME280;62818;49.394;8.686;2022-09-21T04:05:17;101266.25;;;8.37;100.00
60099;BME280;62818;49.394;8.686;2022-09-21T04:06:18;101259.56;;;8.04;100.00
60099;BME280;62818;49.394;8.686;2022-09-21T04:07:19;101255.38;;;8.02;100.00
60099;BME280;62818;49.394;8.686;2022-09-21T04:08:19;101259.97;;;8.09;100.00
60099;BME280;62818;49.394;8.686;2022-09-21T04:09:23;101259.56;;;7.95;100.00
60099;BME280;62818;49.394;8.686;2022-09-21T04:10:26;101253.03;;;7.99;100.00
60099;BME280;62818;49.394;8.686;2022-09-21T04:11:30;101263.78;;;8.26;100.00
60099;BME280;62818;49.394;8.686;2022-09-21T04:12:34;101258.78;;;8.33;100.00
60099;BME280;62818;49.394;8.686;2022-09-21T04:13:37;101255.41;;;8.21;100.00
60099;BME280;62818;49.394;8.686;2022-09-21T04:14:38;101256.38;;;8.20;100.00
60099;BME280;62818;49.394;8.686;2022-09-21T04:15:38;101253.16;;;7.88;100.00
60099;BME280;62818;49.394;8.686;2022-09-21T04:16:41;101253.94;;;7.69;100.00
60099;BME280;62818;49.394;8.686;2022-09-21T04:17:42;101255.25;;;8.13;100.00
60099;BME280;62818;49.394;8.686;2022-09-21T04:18:47;101253.41;;;7.75;100.00
60099;BME280;62818;49.394;8.686;2022-09-21T04:19:50;101251.66;;;7.45;100.00
60099;BME280;62818;49.394;8.686;2022-09-21T04:20:51;101253.94;;;7.60;100.00
60099;BME280;62818;49.394;8.686;2022-09-21T04:21:51;101256.22;;;7.93;100.00
60099;BME280;62818;49.394;8.686;2022-09-21T04:22:52;101257.03;;;7.84;100.00
60099;BME280;62818;49.394;8.686;2022-09-21T04:23:53;101260.13;;;7.39;100.00
60099;BME280;62818;49.394;8.686;2022-09-21T04:24:54;101254.09;;;7.28;100.00
60099;BME280;62818;49.394;8.686;2022-09-21T04:25:54;101255.03;;;7.57;100.00
60099;BME280;62818;49.394;8.686;2022-09-21T04:26:55;101259.25;;;7.79;100.00
60099;BME280;62818;49.394;8.686;2022-09-21T04:27:55;101257.84;;;7.84;100.00
60099;BME280;62818;49.394;8.686;2022-09-21T04:28:59;101256.34;;;7.91;100.00
60099;BME280;62818;49.394;8.686;2022-09-21T04:30:00;101259.28;;;8.07;100.00
60099;BME280;62818;49.394;8.686;2022-09-21T04:31:03;101263.97;;;7.85;100.00
60099;BME280;62818;49.394;8.686;2022-09-21T04:32:06;101262.16;;;7.76;100.00
60099;BME280;62818;49.394;8.686;2022-09-21T04:33:07;101260.47;;;7.65;100.00
60099;BME280;62818;49.394;8.686;2022-09-21T04:34:12;101265.38;;;7.89;100.00
60099;BME280;62818;49.394;8.686;2022-09-21T04:35:13;101260.38;;;7.86;100.00
60099;BME280;62818;49.394;8.686;2022-09-21T04:36:14;101267.06;;;7.99;100.00
60099;BME280;62818;49.394;8.686;2022-09-21T04:37:14;101259.81;;;7.73;100.00
60099;BME280;62818;49.394;8.686;2022-09-21T04:38:15;101254.84;;;7.98;100.00
60099;BME280;62818;49.394;8.686;2022-09-21T04:39:19;101268.72;;;7.91;100.00
60099;BME280;62818;49.394;8.686;2022-09-21T04:40:21;101262.31;;;7.93;100.00
60099;BME280;62818;49.394;8.686;2022-09-21T04:41:26;101258.63;;;8.15;100.00
60099;BME280;62818;49.394;8.686;2022-09-21T04:42:29;101258.50;;;8.26;100.00
60099;BME280;62818;49.394;8.686;2022-09-21T04:43:30;101269.84;;;8.07;100.00
60099;BME280;62818;49.394;8.686;2022-09-21T04:44:31;101259.84;;;8.11;100.00
60099;BME280;62818;49.394;8.686;2022-09-21T04:45:31;101264.59;;;8.17;100.00
60099;BME280;62818;49.394;8.686;2022-09-21T04:46:32;101274.06;;;8.29;100.00
60099;BME280;62818;49.394;8.686;2022-09-21T04:47:33;101263.13;;;7.75;100.00
60099;BME280;62818;49.394;8.686;2022-09-21T04:48:34;101263.59;;;7.49;100.00
60099;BME280;62818;49.394;8.686;2022-09-21T04:49:36;101265.00;;;7.54;100.00
60099;BME280;62818;49.394;8.686;2022-09-21T04:50:37;101274.13;;;7.80;100.00
60099;BME280;62818;49.394;8.686;2022-09-21T04:51:41;101265.41;;;8.08;100.00
60099;BME280;62818;49.394;8.686;2022-09-21T04:52:44;101280.91;;;7.82;100.00
60099;BME280;62818;49.394;8.686;2022-09-21T04:53:46;101272.13;;;7.63;100.00
60099;BME280;62818;49.394;8.686;2022-09-21T04:54:49;101279.84;;;7.94;100.00
60099;BME280;62818;49.394;8.686;2022-09-21T04:55:50;101278.84;;;7.95;100.00
60099;BME280;62818;49.394;8.686;2022-09-21T04:56:50;101271.47;;;7.70;100.00
60099;BME280;62818;49.394;8.686;2022-09-21T04:57:51;101280.81;;;7.44;100.00
60099;BME280;62818;49.394;8.686;2022-09-21T04:58:52;101285.09;;;7.75;100.00
60099;BME280;62818;49.394;8.686;2022-09-21T04:59:52;101275.78;;;7.81;100.00
60099;BME280;62818;49.394;8.686;2022-09-21T05:00:55;101281.50;;;7.95;100.00
60099;BME280;62818;49.394;8.686;2022-09-21T05:01:58;101277.91;;;8.06;100.00
60099;BME280;62818;49.394;8.686;2022-09-21T05:03:01;101285.97;;;8.14;100.00
60099;BME280;62818;49.394;8.686;2022-09-21T05:04:02;101279.44;;;7.99;100.00
60099;BME280;62818;49.394;8.686;2022-09-21T05:05:05;101275.91;;;7.70;100.00
60099;BME280;62818;49.394;8.686;2022-09-21T05:06:06;101281.91;;;7.81;100.00
60099;BME280;62818;49.394;8.686;2022-09-21T05:07:08;101282.63;;;8.02;100.00
60099;BME280;62818;49.394;8.686;2022-09-21T05:08:08;101282.63;;;8.02;100.00
60099;BME280;62818;49.394;8.686;2022-09-21T05:09:09;101291.81;;;8.17;100.00
60099;BME280;62818;49.394;8.686;2022-09-21T05:10:28;101289.22;;;8.27;100.00
60099;BME280;62818;49.394;8.686;2022-09-21T05:11:29;101292.94;;;8.15;100.00
60099;BME280;62818;49.394;8.686;2022-09-21T05:12:35;101292.72;;;7.69;100.00
60099;BME280;62818;49.394;8.686;2022-09-21T05:13:36;101293.13;;;7.74;100.00
60099;BME280;62818;49.394;8.686;2022-09-21T05:14:39;101291.66;;;8.00;100.00
60099;BME280;62818;49.394;8.686;2022-09-21T05:15:40;101291.13;;;7.57;100.00
60099;BME280;62818;49.394;8.686;2022-09-21T05:16:40;101299.28;;;7.44;100.00
60099;BME280;62818;49.394;8.686;2022-09-21T05:17:41;101297.88;;;7.80;100.00
60099;BME280;62818;49.394;8.686;2022-09-21T05:18:45;101301.47;;;7.79;100.00
60099;BME280;62818;49.394;8.686;2022-09-21T05:19:45;101307.91;;;7.56;100.00
60099;BME280;62818;49.394;8.686;2022-09-21T05:20:56;101299.34;;;7.63;100.00
60099;BME280;62818;49.394;8.686;2022-09-21T05:21:58;101306.16;;;7.66;100.00
60099;BME280;62818;49.394;8.686;2022-09-21T05:22:59;101307.91;;;7.56;100.00
60099;BME280;62818;49.394;8.686;2022-09-21T05:24:01;101308.19;;;7.92;100.00
60099;BME280;62818;49.394;8.686;2022-09-21T05:25:05;101316.53;;;7.97;100.00
60099;BME280;62818;49.394;8.686;2022-09-21T05:26:09;101313.78;;;8.18;100.00
60099;BME280;62818;49.394;8.686;2022-09-21T05:27:12;101310.31;;;7.59;100.00
60099;BME280;62818;49.394;8.686;2022-09-21T05:28:13;101320.59;;;7.71;100.00
60099;BME280;62818;49.394;8.686;2022-09-21T05:29:19;101315.66;;;7.87;100.00
60099;BME280;62818;49.394;8.686;2022-09-21T05:30:23;101314.31;;;7.93;100.00
60099;BME280;62818;49.394;8.686;2022-09-21T05:32:48;101318.56;;;7.75;100.00
60099;BME280;62818;49.394;8.686;2022-09-21T05:35:57;101318.00;;;7.81;100.00
60099;BME280;62818;49.394;8.686;2022-09-21T05:37:59;101316.16;;;7.62;100.00
60099;BME280;62818;49.394;8.686;2022-09-21T05:39:08;101314.81;;;7.77;100.00
60099;BME280;62818;49.394;8.686;2022-09-21T05:40:11;101321.66;;;7.99;100.00
60099;BME280;62818;49.394;8.686;2022-09-21T05:41:12;101323.25;;;7.71;100.00
60099;BME280;62818;49.394;8.686;2022-09-21T05:42:13;101322.09;;;7.55;100.00
60099;BME280;62818;49.394;8.686;2022-09-21T05:43:15;101317.84;;;7.73;100.00
60099;BME280;62818;49.394;8.686;2022-09-21T05:44:18;101315.69;;;7.97;100.00
60099;BME280;62818;49.394;8.686;2022-09-21T05:45:20;101326.66;;;7.53;100.00
60099;BME280;62818;49.394;8.686;2022-09-21T05:46:39;101329.00;;;7.86;100.00
60099;BME280;62818;49.394;8.686;2022-09-21T05:47:52;101331.53;;;8.06;100.00
60099;BME280;62818;49.394;8.686;2022-09-21T05:49:02;101330.72;;;8.15;100.00
60099;BME280;62818;49.394;8.686;2022-09-21T05:52:08;101337.38;;;7.30;100.00
60099;BME280;62818;49.394;8.686;2022-09-21T05:53:47;101345.66;;;7.46;100.00
60099;BME280;62818;49.394;8.686;2022-09-21T05:56:52;101333.25;;;7.68;100.00
60099;BME280;62818;49.394;8.686;2022-09-21T05:59:35;101332.59;;;7.85;100.00
60099;BME280;62818;49.394;8.686;2022-09-21T06:04:11;101341.06;;;7.79;100.00
60099;BME280;62818;49.394;8.686;2022-09-21T06:05:13;101339.69;;;7.84;100.00
60099;BME280;62818;49.394;8.686;2022-09-21T06:06:19;101344.81;;;7.76;100.00
60099;BME280;62818;49.394;8.686;2022-09-21T06:07:20;101336.38;;;7.92;100.00
60099;BME280;62818;49.394;8.686;2022-09-21T06:08:20;101342.66;;;7.91;100.00
60099;BME280;62818;49.394;8.686;2022-09-21T06:09:24;101333.81;;;7.71;100.00
60099;BME280;62818;49.394;8.686;2022-09-21T06:10:31;101342.03;;;7.78;100.00
60099;BME280;62818;49.394;8.686;2022-09-21T06:11:33;101334.53;;;7.83;100.00
60099;BME280;62818;49.394;8.686;2022-09-21T06:12:36;101334.28;;;7.86;100.00
60099;BME280;62818;49.394;8.686;2022-09-21T06:13:39;101337.56;;;7.69;100.00
60099;BME280;62818;49.394;8.686;2022-09-21T06:14:42;101347.28;;;7.78;100.00
60099;BME280;62818;49.394;8.686;2022-09-21T06:15:46;101344.25;;;7.73;100.00
60099;BME280;62818;49.394;8.686;2022-09-21T06:16:46;101345.59;;;7.58;100.00
60099;BME280;62818;49.394;8.686;2022-09-21T06:17:54;101348.72;;;7.82;100.00
60099;BME280;62818;49.394;8.686;2022-09-21T06:18:59;101339.06;;;8.11;100.00
60099;BME280;62818;49.394;8.686;2022-09-21T06:19:59;101348.81;;;8.20;100.00
60099;BME280;62818;49.394;8.686;2022-09-21T06:21:02;101346.38;;;7.98;100.00
60099;BME280;62818;49.394;8.686;2022-09-21T06:22:02;101353.50;;;8.07;100.00
60099;BME280;62818;49.394;8.686;2022-09-21T06:23:08;101348.81;;;8.10;100.00
60099;BME280;62818;49.394;8.686;2022-09-21T06:24:13;101340.47;;;8.15;100.00
60099;BME280;62818;49.394;8.686;2022-09-21T06:25:14;101352.09;;;8.03;100.00